sensor_id;sensor_type;location;lat;lon;timestamp;P1;durP1;ratioP1;P2;durP2;ratioP2
38851;SDS011;24605;50.092;9.182;2023-05-23T00:00:59;64.80;;;39.38;;
38851;SDS011;24605;50.092;9.182;2023-05-23T00:03:26;66.22;;;41.63;;
38851;SDS011;24605;50.092;9.182;2023-05-23T00:05:55;70.70;;;43.05;;
38851;SDS011;24605;50.092;9.182;2023-05-23T00:08:22;70.90;;;42.17;;
38851;SDS011;24605;50.092;9.182;2023-05-23T00:10:49;70.07;;;41.78;;
38851;SDS011;24605;50.092;9.182;2023-05-23T00:13:16;74.18;;;43.67;;
38851;SDS011;24605;50.092;9.182;2023-05-23T00:15:43;71.10;;;41.17;;
38851;SDS011;24605;50.092;9.182;2023-05-23T00:18:10;65.90;;;39.90;;
38851;SDS011;24605;50.092;9.182;2023-05-23T00:20:37;57.25;;;36.17;;
38851;SDS011;24605;50.092;9.182;2023-05-23T00:23:05;61.65;;;37.80;;
38851;SDS011;24605;50.092;9.182;2023-05-23T00:25:32;58.38;;;37.45;;
38851;SDS011;24605;50.092;9.182;2023-05-23T00:27:59;61.95;;;38.53;;
38851;SDS011;24605;50.092;9.182;2023-05-23T00:30:28;57.50;;;36.25;;
38851;SDS011;24605;50.092;9.182;2023-05-23T00:32:55;62.28;;;36.88;;
38851;SDS011;24605;50.092;9.182;2023-05-23T00:35:23;53.00;;;32.95;;
38851;SDS011;24605;50.092;9.182;2023-05-23T00:37:49;53.90;;;34.03;;
38851;SDS011;24605;50.092;9.182;2023-05-23T00:40:16;56.42;;;34.55;;
38851;SDS011;24605;50.092;9.182;2023-05-23T00:42:42;53.75;;;34.10;;
38851;SDS011;24605;50.092;9.182;2023-05-23T00:45:09;53.40;;;34.50;;
38851;SDS011;24605;50.092;9.182;2023-05-23T00:47:38;57.55;;;34.75;;
38851;SDS011;24605;50.092;9.182;2023-05-23T00:50:05;56.75;;;35.65;;
38851;SDS011;24605;50.092;9.182;2023-05-23T00:52:33;60.67;;;36.90;;
38851;SDS011;24605;50.092;9.182;2023-05-23T00:54:59;55.90;;;36.25;;
38851;SDS011;24605;50.092;9.182;2023-05-23T00:57:26;59.50;;;36.75;;
38851;SDS011;24605;50.092;9.182;2023-05-23T00:59:53;57.40;;;37.08;;
38851;SDS011;24605;50.092;9.182;2023-05-23T01:02:19;62.58;;;39.55;;
38851;SDS011;24605;50.092;9.182;2023-05-23T01:04:48;65.20;;;42.08;;
38851;SDS011;24605;50.092;9.182;2023-05-23T01:07:18;70.28;;;42.17;;
38851;SDS011;24605;50.092;9.182;2023-05-23T01:09:44;64.82;;;41.35;;
38851;SDS011;24605;50.092;9.182;2023-05-23T01:12:13;70.15;;;40.88;;
38851;SDS011;24605;50.092;9.182;2023-05-23T01:14:46;64.18;;;40.15;;
38851;SDS011;24605;50.092;9.182;2023-05-23T01:17:18;60.60;;;37.70;;
38851;SDS011;24605;50.092;9.182;2023-05-23T01:19:57;62.70;;;39.25;;
38851;SDS011;24605;50.092;9.182;2023-05-23T01:22:32;56.00;;;36.10;;
38851;SDS011;24605;50.092;9.182;2023-05-23T01:25:09;56.33;;;36.72;;
38851;SDS011;24605;50.092;9.182;2023-05-23T01:27:50;54.08;;;36.08;;
38851;SDS011;24605;50.092;9.182;2023-05-23T01:32:49;53.13;;;35.78;;
38851;SDS011;24605;50.092;9.182;2023-05-23T01:35:20;57.33;;;36.60;;
38851;SDS011;24605;50.092;9.182;2023-05-23T01:37:49;56.45;;;36.35;;
38851;SDS011;24605;50.092;9.182;2023-05-23T01:40:15;52.25;;;34.55;;
38851;SDS011;24605;50.092;9.182;2023-05-23T01:42:42;50.45;;;34.63;;
38851;SDS011;24605;50.092;9.182;2023-05-23T01:45:10;51.00;;;33.75;;
38851;SDS011;24605;50.092;9.182;2023-05-23T01:47:38;48.75;;;32.03;;
38851;SDS011;24605;50.092;9.182;2023-05-23T01:50:07;45.90;;;33.35;;
38851;SDS011;24605;50.092;9.182;2023-05-23T01:52:35;42.50;;;30.73;;
38851;SDS011;24605;50.092;9.182;2023-05-23T01:55:04;47.35;;;31.42;;
38851;SDS011;24605;50.092;9.182;2023-05-23T01:57:34;41.92;;;30.08;;
38851;SDS011;24605;50.092;9.182;2023-05-23T02:00:02;45.40;;;30.45;;
38851;SDS011;24605;50.092;9.182;2023-05-23T02:02:31;42.08;;;30.45;;
38851;SDS011;24605;50.092;9.182;2023-05-23T02:04:58;41.67;;;28.95;;
38851;SDS011;24605;50.092;9.182;2023-05-23T02:07:24;41.75;;;29.40;;
38851;SDS011;24605;50.092;9.182;2023-05-23T02:09:51;42.60;;;28.42;;
38851;SDS011;24605;50.092;9.182;2023-05-23T02:12:17;45.35;;;31.17;;
38851;SDS011;24605;50.092;9.182;2023-05-23T02:14:44;38.22;;;27.58;;
38851;SDS011;24605;50.092;9.182;2023-05-23T02:17:11;40.20;;;28.77;;
38851;SDS011;24605;50.092;9.182;2023-05-23T02:19:40;41.83;;;29.45;;
38851;SDS011;24605;50.092;9.182;2023-05-23T02:22:07;37.70;;;28.48;;
38851;SDS011;24605;50.092;9.182;2023-05-23T02:24:33;41.67;;;28.67;;
38851;SDS011;24605;50.092;9.182;2023-05-23T02:27:00;41.00;;;28.60;;
38851;SDS011;24605;50.092;9.182;2023-05-23T02:29:27;35.08;;;26.60;;
38851;SDS011;24605;50.092;9.182;2023-05-23T02:31:53;39.17;;;27.90;;
38851;SDS011;24605;50.092;9.182;2023-05-23T02:34:21;41.67;;;28.00;;
38851;SDS011;24605;50.092;9.182;2023-05-23T02:36:49;41.05;;;28.38;;
38851;SDS011;24605;50.092;9.182;2023-05-23T02:39:16;41.92;;;29.35;;
38851;SDS011;24605;50.092;9.182;2023-05-23T02:41:43;42.58;;;28.95;;
38851;SDS011;24605;50.092;9.182;2023-05-23T02:44:12;42.13;;;30.02;;
38851;SDS011;24605;50.092;9.182;2023-05-23T02:46:38;46.08;;;32.03;;
38851;SDS011;24605;50.092;9.182;2023-05-23T02:49:05;44.67;;;30.27;;
38851;SDS011;24605;50.092;9.182;2023-05-23T02:51:31;40.05;;;28.85;;
38851;SDS011;24605;50.092;9.182;2023-05-23T02:53:59;48.75;;;32.53;;
38851;SDS011;24605;50.092;9.182;2023-05-23T02:56:25;41.55;;;31.40;;
38851;SDS011;24605;50.092;9.182;2023-05-23T02:58:52;47.20;;;32.50;;
38851;SDS011;24605;50.092;9.182;2023-05-23T03:01:18;44.75;;;32.40;;
38851;SDS011;24605;50.092;9.182;2023-05-23T03:03:45;45.13;;;32.75;;
38851;SDS011;24605;50.092;9.182;2023-05-23T03:06:11;46.85;;;32.90;;
38851;SDS011;24605;50.092;9.182;2023-05-23T03:08:38;48.78;;;34.45;;
38851;SDS011;24605;50.092;9.182;2023-05-23T03:11:06;48.10;;;33.25;;
38851;SDS011;24605;50.092;9.182;2023-05-23T03:13:33;49.03;;;34.10;;
38851;SDS011;24605;50.092;9.182;2023-05-23T03:15:59;50.10;;;32.90;;
38851;SDS011;24605;50.092;9.182;2023-05-23T03:18:26;44.38;;;34.03;;
38851;SDS011;24605;50.092;9.182;2023-05-23T03:20:52;50.53;;;33.95;;
38851;SDS011;24605;50.092;9.182;2023-05-23T03:23:19;48.38;;;34.10;;
38851;SDS011;24605;50.092;9.182;2023-05-23T03:25:45;48.30;;;34.78;;
38851;SDS011;24605;50.092;9.182;2023-05-23T03:28:13;50.70;;;35.40;;
38851;SDS011;24605;50.092;9.182;2023-05-23T03:30:40;50.55;;;35.65;;
38851;SDS011;24605;50.092;9.182;2023-05-23T03:33:06;50.45;;;36.00;;
38851;SDS011;24605;50.092;9.182;2023-05-23T03:35:33;51.22;;;35.42;;
38851;SDS011;24605;50.092;9.182;2023-05-23T03:37:59;51.92;;;35.50;;
38851;SDS011;24605;50.092;9.182;2023-05-23T03:40:26;51.17;;;35.03;;
38851;SDS011;24605;50.092;9.182;2023-05-23T03:43:00;48.80;;;34.08;;
38851;SDS011;24605;50.092;9.182;2023-05-23T03:45:29;45.53;;;33.20;;
38851;SDS011;24605;50.092;9.182;2023-05-23T03:47:55;49.35;;;33.65;;
38851;SDS011;24605;50.092;9.182;2023-05-23T03:50:22;47.95;;;34.83;;
38851;SDS011;24605;50.092;9.182;2023-05-23T03:52:48;47.63;;;33.63;;
38851;SDS011;24605;50.092;9.182;2023-05-23T03:55:15;42.42;;;31.23;;
38851;SDS011;24605;50.092;9.182;2023-05-23T03:57:45;42.80;;;32.40;;
38851;SDS011;24605;50.092;9.182;2023-05-23T04:00:12;43.30;;;32.17;;
38851;SDS011;24605;50.092;9.182;2023-05-23T04:02:41;41.90;;;30.60;;
38851;SDS011;24605;50.092;9.182;2023-05-23T04:05:07;43.30;;;29.95;;
38851;SDS011;24605;50.092;9.182;2023-05-23T04:07:34;39.50;;;29.65;;
38851;SDS011;24605;50.092;9.182;2023-05-23T04:10:01;44.63;;;30.10;;
38851;SDS011;24605;50.092;9.182;2023-05-23T04:12:27;43.60;;;28.85;;
38851;SDS011;24605;50.092;9.182;2023-05-23T04:14:55;43.22;;;28.58;;
38851;SDS011;24605;50.092;9.182;2023-05-23T04:17:21;40.17;;;29.17;;
38851;SDS011;24605;50.092;9.182;2023-05-23T04:19:49;38.20;;;28.17;;
38851;SDS011;24605;50.092;9.182;2023-05-23T04:22:16;37.92;;;27.08;;
38851;SDS011;24605;50.092;9.182;2023-05-23T04:24:43;35.78;;;27.38;;
38851;SDS011;24605;50.092;9.182;2023-05-23T04:27:09;34.28;;;26.15;;
38851;SDS011;24605;50.092;9.182;2023-05-23T04:29:35;36.00;;;25.90;;
38851;SDS011;24605;50.092;9.182;2023-05-23T04:32:02;31.52;;;24.02;;
38851;SDS011;24605;50.092;9.182;2023-05-23T04:34:30;36.08;;;24.08;;
38851;SDS011;24605;50.092;9.182;2023-05-23T04:36:59;33.50;;;25.67;;
38851;SDS011;24605;50.092;9.182;2023-05-23T04:39:26;35.65;;;25.45;;
38851;SDS011;24605;50.092;9.182;2023-05-23T04:41:53;35.03;;;24.52;;
38851;SDS011;24605;50.092;9.182;2023-05-23T04:44:20;28.42;;;23.20;;
38851;SDS011;24605;50.092;9.182;2023-05-23T04:46:47;30.60;;;22.90;;
38851;SDS011;24605;50.092;9.182;2023-05-23T04:49:14;31.80;;;23.23;;
38851;SDS011;24605;50.092;9.182;2023-05-23T04:51:40;30.88;;;22.25;;
38851;SDS011;24605;50.092;9.182;2023-05-23T04:54:08;29.65;;;21.85;;
38851;SDS011;24605;50.092;9.182;2023-05-23T04:56:35;29.38;;;20.75;;
38851;SDS011;24605;50.092;9.182;2023-05-23T04:59:01;29.33;;;21.63;;
38851;SDS011;24605;50.092;9.182;2023-05-23T05:01:28;28.40;;;20.67;;
38851;SDS011;24605;50.092;9.182;2023-05-23T05:03:55;25.35;;;19.60;;
38851;SDS011;24605;50.092;9.182;2023-05-23T05:06:22;28.42;;;20.17;;
38851;SDS011;24605;50.092;9.182;2023-05-23T05:08:48;28.65;;;19.40;;
38851;SDS011;24605;50.092;9.182;2023-05-23T05:11:16;26.83;;;19.13;;
38851;SDS011;24605;50.092;9.182;2023-05-23T05:13:43;25.65;;;18.60;;
38851;SDS011;24605;50.092;9.182;2023-05-23T05:16:09;26.05;;;18.63;;
38851;SDS011;24605;50.092;9.182;2023-05-23T05:18:36;23.30;;;18.00;;
38851;SDS011;24605;50.092;9.182;2023-05-23T05:21:04;22.92;;;17.23;;
38851;SDS011;24605;50.092;9.182;2023-05-23T05:23:32;24.08;;;18.13;;
38851;SDS011;24605;50.092;9.182;2023-05-23T05:25:58;23.35;;;17.20;;
38851;SDS011;24605;50.092;9.182;2023-05-23T05:28:26;21.98;;;16.45;;
38851;SDS011;24605;50.092;9.182;2023-05-23T05:30:53;20.95;;;15.52;;
38851;SDS011;24605;50.092;9.182;2023-05-23T05:33:20;25.67;;;16.45;;
38851;SDS011;24605;50.092;9.182;2023-05-23T05:35:47;22.15;;;17.35;;
38851;SDS011;24605;50.092;9.182;2023-05-23T05:38:14;21.33;;;15.57;;
38851;SDS011;24605;50.092;9.182;2023-05-23T05:40:40;18.38;;;14.25;;
38851;SDS011;24605;50.092;9.182;2023-05-23T05:43:06;17.15;;;13.80;;
38851;SDS011;24605;50.092;9.182;2023-05-23T05:45:35;19.45;;;13.20;;
38851;SDS011;24605;50.092;9.182;2023-05-23T05:48:02;16.13;;;12.73;;
38851;SDS011;24605;50.092;9.182;2023-05-23T05:50:28;16.52;;;12.93;;
38851;SDS011;24605;50.092;9.182;2023-05-23T05:52:54;17.83;;;12.05;;
38851;SDS011;24605;50.092;9.182;2023-05-23T05:55:21;18.20;;;12.98;;
38851;SDS011;24605;50.092;9.182;2023-05-23T05:57:48;17.95;;;13.32;;
38851;SDS011;24605;50.092;9.182;2023-05-23T06:00:14;17.15;;;13.52;;
38851;SDS011;24605;50.092;9.182;2023-05-23T06:02:44;18.42;;;14.10;;
38851;SDS011;24605;50.092;9.182;2023-05-23T06:05:12;23.33;;;16.02;;
38851;SDS011;24605;50.092;9.182;2023-05-23T06:07:40;24.23;;;16.35;;
38851;SDS011;24605;50.092;9.182;2023-05-23T06:10:07;21.77;;;15.48;;
38851;SDS011;24605;50.092;9.182;2023-05-23T06:12:36;20.33;;;16.02;;
38851;SDS011;24605;50.092;9.182;2023-05-23T06:15:03;22.63;;;15.90;;
38851;SDS011;24605;50.092;9.182;2023-05-23T06:17:30;23.33;;;16.88;;
38851;SDS011;24605;50.092;9.182;2023-05-23T06:19:58;23.85;;;16.95;;
38851;SDS011;24605;50.092;9.182;2023-05-23T06:22:25;23.63;;;17.73;;
38851;SDS011;24605;50.092;9.182;2023-05-23T06:24:51;24.58;;;18.33;;
38851;SDS011;24605;50.092;9.182;2023-05-23T06:27:18;24.42;;;19.05;;
38851;SDS011;24605;50.092;9.182;2023-05-23T06:29:44;23.35;;;16.88;;
38851;SDS011;24605;50.092;9.182;2023-05-23T06:32:11;25.80;;;17.45;;
38851;SDS011;24605;50.092;9.182;2023-05-23T06:34:37;23.33;;;16.92;;
38851;SDS011;24605;50.092;9.182;2023-05-23T06:37:05;23.48;;;17.13;;
38851;SDS011;24605;50.092;9.182;2023-05-23T06:39:31;22.27;;;16.15;;
38851;SDS011;24605;50.092;9.182;2023-05-23T06:41:58;24.30;;;15.38;;
38851;SDS011;24605;50.092;9.182;2023-05-23T06:44:25;17.35;;;13.25;;
38851;SDS011;24605;50.092;9.182;2023-05-23T06:46:51;19.67;;;14.48;;
38851;SDS011;24605;50.092;9.182;2023-05-23T06:49:21;20.60;;;13.15;;
38851;SDS011;24605;50.092;9.182;2023-05-23T06:51:48;18.40;;;12.27;;
38851;SDS011;24605;50.092;9.182;2023-05-23T06:54:15;16.52;;;11.23;;
38851;SDS011;24605;50.092;9.182;2023-05-23T06:56:42;17.73;;;11.07;;
38851;SDS011;24605;50.092;9.182;2023-05-23T06:59:08;13.43;;;10.27;;
38851;SDS011;24605;50.092;9.182;2023-05-23T07:01:35;14.93;;;10.15;;
38851;SDS011;24605;50.092;9.182;2023-05-23T07:04:01;12.85;;;9.38;;
38851;SDS011;24605;50.092;9.182;2023-05-23T07:06:28;13.13;;;7.95;;
38851;SDS011;24605;50.092;9.182;2023-05-23T07:08:55;11.45;;;7.85;;
38851;SDS011;24605;50.092;9.182;2023-05-23T07:11:23;10.43;;;7.97;;
38851;SDS011;24605;50.092;9.182;2023-05-23T07:13:50;10.80;;;7.05;;
38851;SDS011;24605;50.092;9.182;2023-05-23T07:16:17;11.02;;;6.22;;
38851;SDS011;24605;50.092;9.182;2023-05-23T07:18:43;9.45;;;6.70;;
38851;SDS011;24605;50.092;9.182;2023-05-23T07:21:10;9.48;;;6.10;;
38851;SDS011;24605;50.092;9.182;2023-05-23T07:23:36;7.25;;;5.25;;
38851;SDS011;24605;50.092;9.182;2023-05-23T07:26:02;9.63;;;5.80;;
38851;SDS011;24605;50.092;9.182;2023-05-23T07:28:30;8.63;;;6.13;;
38851;SDS011;24605;50.092;9.182;2023-05-23T07:30:57;8.02;;;5.75;;
38851;SDS011;24605;50.092;9.182;2023-05-23T07:33:23;8.75;;;5.30;;
38851;SDS011;24605;50.092;9.182;2023-05-23T07:35:49;7.93;;;5.30;;
38851;SDS011;24605;50.092;9.182;2023-05-23T07:38:16;7.32;;;5.20;;
38851;SDS011;24605;50.092;9.182;2023-05-23T07:40:42;7.93;;;4.68;;
38851;SDS011;24605;50.092;9.182;2023-05-23T07:43:09;5.95;;;4.15;;
38851;SDS011;24605;50.092;9.182;2023-05-23T07:45:37;6.45;;;4.50;;
38851;SDS011;24605;50.092;9.182;2023-05-23T07:48:03;8.68;;;3.90;;
38851;SDS011;24605;50.092;9.182;2023-05-23T07:50:30;6.47;;;4.13;;
38851;SDS011;24605;50.092;9.182;2023-05-23T07:52:56;4.95;;;3.65;;
38851;SDS011;24605;50.092;9.182;2023-05-23T07:55:23;6.80;;;4.20;;
38851;SDS011;24605;50.092;9.182;2023-05-23T07:57:49;7.68;;;4.03;;
38851;SDS011;24605;50.092;9.182;2023-05-23T08:00:16;5.90;;;4.07;;
38851;SDS011;24605;50.092;9.182;2023-05-23T08:02:45;8.10;;;3.92;;
38851;SDS011;24605;50.092;9.182;2023-05-23T08:05:11;5.43;;;3.80;;
38851;SDS011;24605;50.092;9.182;2023-05-23T08:07:38;6.00;;;4.15;;
38851;SDS011;24605;50.092;9.182;2023-05-23T08:10:05;6.60;;;3.72;;
38851;SDS011;24605;50.092;9.182;2023-05-23T08:12:32;7.43;;;3.90;;
38851;SDS011;24605;50.092;9.182;2023-05-23T08:14:59;6.45;;;3.40;;
38851;SDS011;24605;50.092;9.182;2023-05-23T08:17:25;5.35;;;3.85;;
38851;SDS011;24605;50.092;9.182;2023-05-23T08:19:53;5.47;;;4.05;;
38851;SDS011;24605;50.092;9.182;2023-05-23T08:22:19;5.80;;;3.78;;
38851;SDS011;24605;50.092;9.182;2023-05-23T08:24:46;7.00;;;4.32;;
38851;SDS011;24605;50.092;9.182;2023-05-23T08:27:12;6.05;;;4.38;;
38851;SDS011;24605;50.092;9.182;2023-05-23T08:29:39;7.05;;;4.15;;
38851;SDS011;24605;50.092;9.182;2023-05-23T08:32:06;7.43;;;4.20;;
38851;SDS011;24605;50.092;9.182;2023-05-23T08:34:32;8.50;;;4.20;;
38851;SDS011;24605;50.092;9.182;2023-05-23T08:37:00;7.45;;;4.35;;
38851;SDS011;24605;50.092;9.182;2023-05-23T08:39:26;10.88;;;5.13;;
38851;SDS011;24605;50.092;9.182;2023-05-23T08:41:53;7.07;;;4.88;;
38851;SDS011;24605;50.092;9.182;2023-05-23T08:44:19;7.25;;;4.80;;
38851;SDS011;24605;50.092;9.182;2023-05-23T08:46:46;6.05;;;4.22;;
38851;SDS011;24605;50.092;9.182;2023-05-23T08:49:14;7.63;;;4.63;;
38851;SDS011;24605;50.092;9.182;2023-05-23T08:51:43;5.68;;;4.22;;
38851;SDS011;24605;50.092;9.182;2023-05-23T08:54:11;7.13;;;4.75;;
38851;SDS011;24605;50.092;9.182;2023-05-23T08:56:39;7.15;;;4.78;;
38851;SDS011;24605;50.092;9.182;2023-05-23T08:59:06;11.82;;;4.95;;
38851;SDS011;24605;50.092;9.182;2023-05-23T09:01:34;7.50;;;5.13;;
38851;SDS011;24605;50.092;9.182;2023-05-23T09:04:01;7.47;;;5.43;;
38851;SDS011;24605;50.092;9.182;2023-05-23T09:06:29;9.02;;;5.75;;
38851;SDS011;24605;50.092;9.182;2023-05-23T09:08:56;9.05;;;5.78;;
38851;SDS011;24605;50.092;9.182;2023-05-23T09:11:24;8.60;;;6.07;;
38851;SDS011;24605;50.092;9.182;2023-05-23T09:13:50;8.57;;;5.80;;
38851;SDS011;24605;50.092;9.182;2023-05-23T09:16:17;8.43;;;6.40;;
38851;SDS011;24605;50.092;9.182;2023-05-23T09:18:44;8.93;;;6.57;;
38851;SDS011;24605;50.092;9.182;2023-05-23T09:21:12;9.65;;;6.65;;
38851;SDS011;24605;50.092;9.182;2023-05-23T09:23:41;9.93;;;6.55;;
38851;SDS011;24605;50.092;9.182;2023-05-23T09:26:08;8.93;;;6.43;;
38851;SDS011;24605;50.092;9.182;2023-05-23T09:28:39;8.80;;;5.68;;
38851;SDS011;24605;50.092;9.182;2023-05-23T09:31:08;9.77;;;5.60;;
38851;SDS011;24605;50.092;9.182;2023-05-23T09:33:43;8.10;;;5.32;;
38851;SDS011;24605;50.092;9.182;2023-05-23T09:36:12;7.47;;;5.95;;
38851;SDS011;24605;50.092;9.182;2023-05-23T09:38:38;7.75;;;5.20;;
38851;SDS011;24605;50.092;9.182;2023-05-23T09:41:06;7.97;;;5.57;;
38851;SDS011;24605;50.092;9.182;2023-05-23T09:43:33;6.07;;;4.47;;
38851;SDS011;24605;50.092;9.182;2023-05-23T09:46:03;6.88;;;5.07;;
38851;SDS011;24605;50.092;9.182;2023-05-23T09:48:32;7.50;;;4.50;;
38851;SDS011;24605;50.092;9.182;2023-05-23T09:51:02;7.47;;;4.80;;
38851;SDS011;24605;50.092;9.182;2023-05-23T09:53:29;6.30;;;4.93;;
38851;SDS011;24605;50.092;9.182;2023-05-23T09:55:55;6.50;;;5.07;;
38851;SDS011;24605;50.092;9.182;2023-05-23T09:58:24;7.32;;;5.15;;
38851;SDS011;24605;50.092;9.182;2023-05-23T10:00:53;8.18;;;5.43;;
38851;SDS011;24605;50.092;9.182;2023-05-23T10:03:23;6.95;;;5.50;;
38851;SDS011;24605;50.092;9.182;2023-05-23T10:05:56;9.45;;;5.53;;
38851;SDS011;24605;50.092;9.182;2023-05-23T10:08:29;6.72;;;4.78;;
38851;SDS011;24605;50.092;9.182;2023-05-23T10:14:34;6.50;;;4.93;;
38851;SDS011;24605;50.092;9.182;2023-05-23T10:17:06;6.53;;;5.18;;
38851;SDS011;24605;50.092;9.182;2023-05-23T10:19:39;6.55;;;4.60;;
38851;SDS011;24605;50.092;9.182;2023-05-23T10:22:09;7.07;;;4.65;;
38851;SDS011;24605;50.092;9.182;2023-05-23T10:24:39;5.75;;;4.20;;
38851;SDS011;24605;50.092;9.182;2023-05-23T10:27:07;6.40;;;4.25;;
38851;SDS011;24605;50.092;9.182;2023-05-23T10:29:34;5.70;;;4.05;;
38851;SDS011;24605;50.092;9.182;2023-05-23T10:32:01;8.60;;;4.35;;
38851;SDS011;24605;50.092;9.182;2023-05-23T10:34:31;8.32;;;3.78;;
38851;SDS011;24605;50.092;9.182;2023-05-23T10:37:04;8.27;;;4.10;;
38851;SDS011;24605;50.092;9.182;2023-05-23T10:39:34;6.60;;;4.25;;
38851;SDS011;24605;50.092;9.182;2023-05-23T10:42:10;6.32;;;3.97;;
38851;SDS011;24605;50.092;9.182;2023-05-23T10:44:40;5.00;;;3.72;;
38851;SDS011;24605;50.092;9.182;2023-05-23T10:47:07;6.25;;;4.32;;
38851;SDS011;24605;50.092;9.182;2023-05-23T10:49:36;6.20;;;3.95;;
38851;SDS011;24605;50.092;9.182;2023-05-23T10:52:05;8.52;;;4.35;;
38851;SDS011;24605;50.092;9.182;2023-05-23T10:54:35;9.57;;;3.95;;
38851;SDS011;24605;50.092;9.182;2023-05-23T10:57:08;5.68;;;4.18;;
38851;SDS011;24605;50.092;9.182;2023-05-23T10:59:36;6.63;;;4.13;;
38851;SDS011;24605;50.092;9.182;2023-05-23T11:02:08;6.35;;;3.85;;
38851;SDS011;24605;50.092;9.182;2023-05-23T11:04:39;6.88;;;4.20;;
38851;SDS011;24605;50.092;9.182;2023-05-23T11:07:08;6.75;;;4.03;;
38851;SDS011;24605;50.092;9.182;2023-05-23T11:10:07;6.80;;;3.80;;
38851;SDS011;24605;50.092;9.182;2023-05-23T11:12:38;8.00;;;3.88;;
38851;SDS011;24605;50.092;9.182;2023-05-23T11:17:49;7.18;;;4.18;;
38851;SDS011;24605;50.092;9.182;2023-05-23T11:20:16;6.88;;;3.80;;
38851;SDS011;24605;50.092;9.182;2023-05-23T11:22:52;6.43;;;3.90;;
38851;SDS011;24605;50.092;9.182;2023-05-23T11:25:22;6.50;;;3.60;;
38851;SDS011;24605;50.092;9.182;2023-05-23T11:28:05;6.70;;;3.60;;
38851;SDS011;24605;50.092;9.182;2023-05-23T11:30:31;6.25;;;3.88;;
38851;SDS011;24605;50.092;9.182;2023-05-23T11:33:00;5.97;;;3.72;;
38851;SDS011;24605;50.092;9.182;2023-05-23T11:35:37;5.78;;;3.78;;
38851;SDS011;24605;50.092;9.182;2023-05-23T11:38:03;5.63;;;3.40;;
38851;SDS011;24605;50.092;9.182;2023-05-23T11:40:32;5.95;;;3.70;;
38851;SDS011;24605;50.092;9.182;2023-05-23T11:43:01;8.27;;;3.00;;
38851;SDS011;24605;50.092;9.182;2023-05-23T11:45:28;6.93;;;3.40;;
38851;SDS011;24605;50.092;9.182;2023-05-23T11:47:56;4.43;;;2.80;;
38851;SDS011;24605;50.092;9.182;2023-05-23T11:50:23;4.07;;;2.75;;
38851;SDS011;24605;50.092;9.182;2023-05-23T11:52:50;4.47;;;2.40;;
38851;SDS011;24605;50.092;9.182;2023-05-23T11:55:17;5.05;;;2.65;;
38851;SDS011;24605;50.092;9.182;2023-05-23T11:57:45;5.65;;;2.58;;
38851;SDS011;24605;50.092;9.182;2023-05-23T12:00:13;3.78;;;2.33;;
38851;SDS011;24605;50.092;9.182;2023-05-23T12:02:41;5.38;;;2.58;;
38851;SDS011;24605;50.092;9.182;2023-05-23T12:05:09;4.35;;;2.33;;
38851;SDS011;24605;50.092;9.182;2023-05-23T12:07:39;3.55;;;2.20;;
38851;SDS011;24605;50.092;9.182;2023-05-23T12:10:06;4.00;;;2.38;;
38851;SDS011;24605;50.092;9.182;2023-05-23T12:12:33;4.65;;;2.30;;
38851;SDS011;24605;50.092;9.182;2023-05-23T12:15:02;4.57;;;2.22;;
38851;SDS011;24605;50.092;9.182;2023-05-23T12:17:29;4.22;;;1.92;;
38851;SDS011;24605;50.092;9.182;2023-05-23T12:19:57;4.03;;;2.25;;
38851;SDS011;24605;50.092;9.182;2023-05-23T12:22:23;4.75;;;2.40;;
38851;SDS011;24605;50.092;9.182;2023-05-23T12:24:52;5.45;;;2.30;;
38851;SDS011;24605;50.092;9.182;2023-05-23T12:27:18;4.03;;;2.03;;
38851;SDS011;24605;50.092;9.182;2023-05-23T12:29:48;3.70;;;2.20;;
38851;SDS011;24605;50.092;9.182;2023-05-23T12:32:17;3.42;;;1.92;;
38851;SDS011;24605;50.092;9.182;2023-05-23T12:34:43;3.50;;;1.88;;
38851;SDS011;24605;50.092;9.182;2023-05-23T12:37:11;4.63;;;1.80;;
38851;SDS011;24605;50.092;9.182;2023-05-23T12:39:38;3.20;;;2.00;;
38851;SDS011;24605;50.092;9.182;2023-05-23T12:42:08;4.10;;;2.03;;
38851;SDS011;24605;50.092;9.182;2023-05-23T12:44:35;3.13;;;1.90;;
38851;SDS011;24605;50.092;9.182;2023-05-23T12:47:01;4.30;;;2.00;;
38851;SDS011;24605;50.092;9.182;2023-05-23T12:49:29;3.08;;;1.70;;
38851;SDS011;24605;50.092;9.182;2023-05-23T12:51:56;3.75;;;1.70;;
38851;SDS011;24605;50.092;9.182;2023-05-23T12:54:22;3.42;;;1.77;;
38851;SDS011;24605;50.092;9.182;2023-05-23T12:56:49;4.18;;;1.70;;
38851;SDS011;24605;50.092;9.182;2023-05-23T12:59:15;3.38;;;1.50;;
38851;SDS011;24605;50.092;9.182;2023-05-23T13:01:42;2.70;;;1.40;;
38851;SDS011;24605;50.092;9.182;2023-05-23T13:04:08;4.47;;;1.60;;
38851;SDS011;24605;50.092;9.182;2023-05-23T13:06:36;3.60;;;1.30;;
38851;SDS011;24605;50.092;9.182;2023-05-23T13:09:03;5.10;;;1.48;;
38851;SDS011;24605;50.092;9.182;2023-05-23T13:11:29;4.72;;;1.40;;
38851;SDS011;24605;50.092;9.182;2023-05-23T13:13:57;2.58;;;1.20;;
38851;SDS011;24605;50.092;9.182;2023-05-23T13:16:23;2.58;;;1.30;;
38851;SDS011;24605;50.092;9.182;2023-05-23T13:18:50;3.55;;;1.10;;
38851;SDS011;24605;50.092;9.182;2023-05-23T13:21:17;2.20;;;1.25;;
38851;SDS011;24605;50.092;9.182;2023-05-23T13:23:45;2.35;;;1.15;;
38851;SDS011;24605;50.092;9.182;2023-05-23T13:26:11;3.00;;;1.25;;
38851;SDS011;24605;50.092;9.182;2023-05-23T13:28:38;2.42;;;1.50;;
38851;SDS011;24605;50.092;9.182;2023-05-23T13:31:05;3.30;;;1.33;;
38851;SDS011;24605;50.092;9.182;2023-05-23T13:33:31;3.25;;;1.30;;
38851;SDS011;24605;50.092;9.182;2023-05-23T13:35:58;2.58;;;1.30;;
38851;SDS011;24605;50.092;9.182;2023-05-23T13:38:24;2.95;;;1.35;;
38851;SDS011;24605;50.092;9.182;2023-05-23T13:40:53;2.67;;;1.40;;
38851;SDS011;24605;50.092;9.182;2023-05-23T13:43:19;2.95;;;1.40;;
38851;SDS011;24605;50.092;9.182;2023-05-23T13:45:46;4.07;;;1.50;;
38851;SDS011;24605;50.092;9.182;2023-05-23T13:48:12;3.20;;;1.30;;
38851;SDS011;24605;50.092;9.182;2023-05-23T13:50:40;9.52;;;1.60;;
38851;SDS011;24605;50.092;9.182;2023-05-23T13:53:07;18.60;;;1.98;;
38851;SDS011;24605;50.092;9.182;2023-05-23T13:55:39;3.17;;;1.20;;
38851;SDS011;24605;50.092;9.182;2023-05-23T13:58:07;5.78;;;1.30;;
38851;SDS011;24605;50.092;9.182;2023-05-23T14:00:33;2.67;;;1.00;;
38851;SDS011;24605;50.092;9.182;2023-05-23T14:02:59;2.58;;;1.25;;
38851;SDS011;24605;50.092;9.182;2023-05-23T14:05:26;2.85;;;1.33;;
38851;SDS011;24605;50.092;9.182;2023-05-23T14:07:52;7.18;;;1.25;;
38851;SDS011;24605;50.092;9.182;2023-05-23T14:10:19;2.08;;;1.20;;
38851;SDS011;24605;50.092;9.182;2023-05-23T14:12:46;2.17;;;1.17;;
38851;SDS011;24605;50.092;9.182;2023-05-23T14:15:14;4.18;;;1.30;;
38851;SDS011;24605;50.092;9.182;2023-05-23T14:17:41;1.55;;;0.90;;
38851;SDS011;24605;50.092;9.182;2023-05-23T14:20:08;1.65;;;1.13;;
38851;SDS011;24605;50.092;9.182;2023-05-23T14:22:35;2.10;;;1.30;;
38851;SDS011;24605;50.092;9.182;2023-05-23T14:25:01;4.43;;;1.30;;
38851;SDS011;24605;50.092;9.182;2023-05-23T14:27:28;1.92;;;1.10;;
38851;SDS011;24605;50.092;9.182;2023-05-23T14:29:54;3.00;;;1.05;;
38851;SDS011;24605;50.092;9.182;2023-05-23T14:32:22;1.83;;;0.98;;
38851;SDS011;24605;50.092;9.182;2023-05-23T14:34:49;2.05;;;1.20;;
38851;SDS011;24605;50.092;9.182;2023-05-23T14:37:15;3.85;;;1.13;;
38851;SDS011;24605;50.092;9.182;2023-05-23T14:39:42;2.35;;;1.20;;
38851;SDS011;24605;50.092;9.182;2023-05-23T14:42:08;4.85;;;1.52;;
38851;SDS011;24605;50.092;9.182;2023-05-23T14:44:34;2.58;;;1.20;;
38851;SDS011;24605;50.092;9.182;2023-05-23T14:47:01;2.08;;;1.30;;